sensor_id;sensor_type;location;lat;lon;timestamp;temperature;humidity
7044;DHT22;57890;52.36301240;9.76001620;2022-10-16T00:00:32;16.60;99.50
7044;DHT22;57890;52.36301240;9.76001620;2022-10-16T00:02:59;16.60;99.50
7044;DHT22;57890;52.36301240;9.76001620;2022-10-16T00:05:25;16.60;99.50
7044;DHT22;57890;52.36301240;9.76001620;2022-10-16T00:07:54;16.50;99.50
7044;DHT22;57890;52.36301240;9.76001620;2022-10-16T00:10:21;16.60;99.50
7044;DHT22;57890;52.36301240;9.76001620;2022-10-16T00:12:48;16.50;99.40
7044;DHT22;57890;52.36301240;9.76001620;2022-10-16T00:15:15;16.50;99.40
7044;DHT22;57890;52.36301240;9.76001620;2022-10-16T00:17:43;16.50;99.40
7044;DHT22;57890;52.36301240;9.76001620;2022-10-16T00:20:10;16.50;99.30
7044;DHT22;57890;52.36301240;9.76001620;2022-10-16T00:22:57;16.50;99.30
7044;DHT22;57890;52.36301240;9.76001620;2022-10-16T00:25:24;16.50;99.30
7044;DHT22;57890;52.36301240;9.76001620;2022-10-16T00:27:51;16.50;99.20
7044;DHT22;57890;52.36301240;9.76001620;2022-10-16T00:30:18;16.50;99.10
7044;DHT22;57890;52.36301240;9.76001620;2022-10-16T00:32:45;16.50;99.10
7044;DHT22;57890;52.36301240;9.76001620;2022-10-16T00:35:11;16.50;99.00
7044;DHT22;57890;52.36301240;9.76001620;2022-10-16T00:37:38;16.50;98.90
7044;DHT22;57890;52.36301240;9.76001620;2022-10-16T00:40:08;16.50;98.90
7044;DHT22;57890;52.36301240;9.76001620;2022-10-16T00:42:35;16.40;98.80
7044;DHT22;57890;52.36301240;9.76001620;2022-10-16T00:45:03;16.40;98.70
7044;DHT22;57890;52.36301240;9.76001620;2022-10-16T00:47:33;16.40;98.70
7044;DHT22;57890;52.36301240;9.76001620;2022-10-16T00:50:07;16.40;98.70
7044;DHT22;57890;52.36301240;9.76001620;2022-10-16T00:52:35;16.40;98.70
7044;DHT22;57890;52.36301240;9.76001620;2022-10-16T00:55:05;16.40;98.80
7044;DHT22;57890;52.36301240;9.76001620;2022-10-16T00:57:33;16.40;98.80
7044;DHT22;57890;52.36301240;9.76001620;2022-10-16T01:00:01;16.40;98.90
7044;DHT22;57890;52.36301240;9.76001620;2022-10-16T01:02:29;16.40;99.00
7044;DHT22;57890;52.36301240;9.76001620;2022-10-16T01:04:56;16.40;99.00
7044;DHT22;57890;52.36301240;9.76001620;2022-10-16T01:07:31;16.40;99.10
7044;DHT22;57890;52.36301240;9.76001620;2022-10-16T01:10:10;16.40;99.20
7044;DHT22;57890;52.36301240;9.76001620;2022-10-16T01:12:44;16.40;99.30
7044;DHT22;57890;52.36301240;9.76001620;2022-10-16T01:15:17;16.40;99.40
7044;DHT22;57890;52.36301240;9.76001620;2022-10-16T01:17:53;16.40;99.50
7044;DHT22;57890;52.36301240;9.76001620;2022-10-16T01:20:26;16.40;99.60
7044;DHT22;57890;52.36301240;9.76001620;2022-10-16T01:23:13;16.40;99.70
7044;DHT22;57890;52.36301240;9.76001620;2022-10-16T01:26:06;16.40;99.70
7044;DHT22;57890;52.36301240;9.76001620;2022-10-16T01:28:41;16.40;99.80
7044;DHT22;57890;52.36301240;9.76001620;2022-10-16T01:31:11;16.40;99.90
7044;DHT22;57890;52.36301240;9.76001620;2022-10-16T01:33:44;16.40;99.90
7044;DHT22;57890;52.36301240;9.76001620;2022-10-16T01:36:14;16.40;99.90
7044;DHT22;57890;52.36301240;9.76001620;2022-10-16T01:38:43;16.30;99.90
7044;DHT22;57890;52.36301240;9.76001620;2022-10-16T01:41:14;16.40;99.90
7044;DHT22;57890;52.36301240;9.76001620;2022-10-16T01:43:47;16.30;99.90
7044;DHT22;57890;52.36301240;9.76001620;2022-10-16T01:46:17;16.30;99.90
7044;DHT22;57890;52.36301240;9.76001620;2022-10-16T01:48:45;16.30;99.90
7044;DHT22;57890;52.36301240;9.76001620;2022-10-16T01:51:15;16.40;99.90
7044;DHT22;57890;52.36301240;9.76001620;2022-10-16T01:53:47;16.30;99.90
7044;DHT22;57890;52.36301240;9.76001620;2022-10-16T01:56:16;16.40;99.90
7044;DHT22;57890;52.36301240;9.76001620;2022-10-16T01:58:47;16.40;99.90
7044;DHT22;57890;52.36301240;9.76001620;2022-10-16T02:01:17;16.40;99.90
7044;DHT22;57890;52.36301240;9.76001620;2022-10-16T02:03:46;16.40;99.90
7044;DHT22;57890;52.36301240;9.76001620;2022-10-16T02:06:16;16.40;99.90
7044;DHT22;57890;52.36301240;9.76001620;2022-10-16T02:08:43;16.40;99.90
7044;DHT22;57890;52.36301240;9.76001620;2022-10-16T02:11:11;16.30;99.90
7044;DHT22;57890;52.36301240;9.76001620;2022-10-16T02:13:43;16.30;99.90
7044;DHT22;57890;52.36301240;9.76001620;2022-10-16T02:16:14;16.30;99.90
7044;DHT22;57890;52.36301240;9.76001620;2022-10-16T02:18:42;16.30;99.90
7044;DHT22;57890;52.36301240;9.76001620;2022-10-16T02:21:15;16.30;99.90
7044;DHT22;57890;52.36301240;9.76001620;2022-10-16T02:23:48;16.30;99.90
7044;DHT22;57890;52.36301240;9.76001620;2022-10-16T02:26:21;16.30;99.90
7044;DHT22;57890;52.36301240;9.76001620;2022-10-16T02:28:55;16.30;99.90
7044;DHT22;57890;52.36301240;9.76001620;2022-10-16T02:31:28;16.30;99.90
7044;DHT22;57890;52.36301240;9.76001620;2022-10-16T02:34:00;16.30;99.90
7044;DHT22;57890;52.36301240;9.76001620;2022-10-16T02:36:29;16.30;99.90
7044;DHT22;57890;52.36301240;9.76001620;2022-10-16T02:38:56;16.30;99.90
7044;DHT22;57890;52.36301240;9.76001620;2022-10-16T02:41:25;16.30;99.90
7044;DHT22;57890;52.36301240;9.76001620;2022-10-16T02:43:53;16.30;99.90
7044;DHT22;57890;52.36301240;9.76001620;2022-10-16T02:46:21;16.30;99.90
7044;DHT22;57890;52.36301240;9.76001620;2022-10-16T02:48:49;16.30;99.90
7044;DHT22;57890;52.36301240;9.76001620;2022-10-16T02:51:16;16.30;99.90
7044;DHT22;57890;52.36301240;9.76001620;2022-10-16T02:53:43;16.30;99.90
7044;DHT22;57890;52.36301240;9.76001620;2022-10-16T02:56:10;16.20;99.90
7044;DHT22;57890;52.36301240;9.76001620;2022-10-16T02:58:37;16.20;99.90
7044;DHT22;57890;52.36301240;9.76001620;2022-10-16T03:01:04;16.20;99.90
7044;DHT22;57890;52.36301240;9.76001620;2022-10-16T03:03:31;16.20;99.90
7044;DHT22;57890;52.36301240;9.76001620;2022-10-16T03:05:59;16.20;99.90
7044;DHT22;57890;52.36301240;9.76001620;2022-10-16T03:08:26;16.20;99.90
7044;DHT22;57890;52.36301240;9.76001620;2022-10-16T03:10:53;16.20;99.90
7044;DHT22;57890;52.36301240;9.76001620;2022-10-16T03:13:20;16.20;99.90
7044;DHT22;57890;52.36301240;9.76001620;2022-10-16T03:15:47;16.20;99.90
7044;DHT22;57890;52.36301240;9.76001620;2022-10-16T03:18:14;16.20;99.90
7044;DHT22;57890;52.36301240;9.76001620;2022-10-16T03:20:42;16.20;99.90
7044;DHT22;57890;52.36301240;9.76001620;2022-10-16T03:23:11;16.20;99.90
7044;DHT22;57890;52.36301240;9.76001620;2022-10-16T03:25:38;16.20;99.90
7044;DHT22;57890;52.36301240;9.76001620;2022-10-16T03:28:05;16.20;99.90
7044;DHT22;57890;52.36301240;9.76001620;2022-10-16T03:30:32;16.10;99.90
7044;DHT22;57890;52.36301240;9.76001620;2022-10-16T03:32:59;16.10;99.90
7044;DHT22;57890;52.36301240;9.76001620;2022-10-16T03:35:26;16.10;99.90
7044;DHT22;57890;52.36301240;9.76001620;2022-10-16T03:37:53;16.10;99.90
7044;DHT22;57890;52.36301240;9.76001620;2022-10-16T03:40:21;16.00;99.90
7044;DHT22;57890;52.36301240;9.76001620;2022-10-16T03:42:48;16.00;99.90
7044;DHT22;57890;52.36301240;9.76001620;2022-10-16T03:45:15;16.00;99.90
7044;DHT22;57890;52.36301240;9.76001620;2022-10-16T03:47:42;16.00;99.90
7044;DHT22;57890;52.36301240;9.76001620;2022-10-16T03:50:09;15.90;99.90
7044;DHT22;57890;52.36301240;9.76001620;2022-10-16T03:52:36;15.90;99.90
7044;DHT22;57890;52.36301240;9.76001620;2022-10-16T03:55:04;15.90;99.90
7044;DHT22;57890;52.36301240;9.76001620;2022-10-16T03:57:32;15.80;99.90
7044;DHT22;57890;52.36301240;9.76001620;2022-10-16T03:59:59;15.80;99.90
7044;DHT22;57890;52.36301240;9.76001620;2022-10-16T04:02:26;15.80;99.90
7044;DHT22;57890;52.36301240;9.76001620;2022-10-16T04:04:53;15.70;99.90
7044;DHT22;57890;52.36301240;9.76001620;2022-10-16T04:07:20;15.70;99.90
7044;DHT22;57890;52.36301240;9.76001620;2022-10-16T04:09:47;15.70;99.90
7044;DHT22;57890;52.36301240;9.76001620;2022-10-16T04:12:14;15.60;99.90
7044;DHT22;57890;52.36301240;9.76001620;2022-10-16T04:14:42;15.60;99.90
7044;DHT22;57890;52.36301240;9.76001620;2022-10-16T04:17:09;15.60;99.90
7044;DHT22;57890;52.36301240;9.76001620;2022-10-16T04:19:36;15.60;99.90
7044;DHT22;57890;52.36301240;9.76001620;2022-10-16T04:22:03;15.70;99.90
7044;DHT22;57890;52.36301240;9.76001620;2022-10-16T04:24:30;15.70;99.90
7044;DHT22;57890;52.36301240;9.76001620;2022-10-16T04:26:57;15.70;99.90
7044;DHT22;57890;52.36301240;9.76001620;2022-10-16T04:29:24;15.70;99.90
7044;DHT22;57890;52.36301240;9.76001620;2022-10-16T04:31:52;15.70;99.90
7044;DHT22;57890;52.36301240;9.76001620;2022-10-16T04:34:19;15.70;99.90
7044;DHT22;57890;52.36301240;9.76001620;2022-10-16T04:36:47;15.70;99.90
7044;DHT22;57890;52.36301240;9.76001620;2022-10-16T04:39:15;15.70;99.90
7044;DHT22;57890;52.36301240;9.76001620;2022-10-16T04:41:42;15.70;99.90
7044;DHT22;57890;52.36301240;9.76001620;2022-10-16T04:44:08;15.70;99.90
7044;DHT22;57890;52.36301240;9.76001620;2022-10-16T04:46:35;15.70;99.90
7044;DHT22;57890;52.36301240;9.76001620;2022-10-16T04:49:04;15.70;99.90
7044;DHT22;57890;52.36301240;9.76001620;2022-10-16T04:51:31;15.70;99.90
7044;DHT22;57890;52.36301240;9.76001620;2022-10-16T04:53:58;15.70;99.90
7044;DHT22;57890;52.36301240;9.76001620;2022-10-16T04:56:25;15.70;99.90
7044;DHT22;57890;52.36301240;9.76001620;2022-10-16T04:58:52;15.70;99.90
7044;DHT22;57890;52.36301240;9.76001620;2022-10-16T05:01:19;15.70;99.90
7044;DHT22;57890;52.36301240;9.76001620;2022-10-16T05:03:46;15.70;99.90
7044;DHT22;57890;52.36301240;9.76001620;2022-10-16T05:06:14;15.70;99.90
7044;DHT22;57890;52.36301240;9.76001620;2022-10-16T05:08:41;15.70;99.90
7044;DHT22;57890;52.36301240;9.76001620;2022-10-16T05:11:08;15.70;99.90
7044;DHT22;57890;52.36301240;9.76001620;2022-10-16T05:13:35;15.70;99.90
7044;DHT22;57890;52.36301240;9.76001620;2022-10-16T05:16:02;15.70;99.90
7044;DHT22;57890;52.36301240;9.76001620;2022-10-16T05:18:29;15.70;99.90
7044;DHT22;57890;52.36301240;9.76001620;2022-10-16T05:20:56;15.70;99.90
7044;DHT22;57890;52.36301240;9.76001620;2022-10-16T05:23:24;15.70;99.90
7044;DHT22;57890;52.36301240;9.76001620;2022-10-16T05:25:54;15.70;99.90
7044;DHT22;57890;52.36301240;9.76001620;2022-10-16T05:28:23;15.70;99.90
7044;DHT22;57890;52.36301240;9.76001620;2022-10-16T05:30:50;15.70;99.90
7044;DHT22;57890;52.36301240;9.76001620;2022-10-16T05:33:19;15.70;99.90
7044;DHT22;57890;52.36301240;9.76001620;2022-10-16T05:35:46;15.70;99.90
7044;DHT22;57890;52.36301240;9.76001620;2022-10-16T05:38:14;15.60;99.90
7044;DHT22;57890;52.36301240;9.76001620;2022-10-16T05:40:42;15.60;99.90
7044;DHT22;57890;52.36301240;9.76001620;2022-10-16T05:43:09;15.60;99.90
7044;DHT22;57890;52.36301240;9.76001620;2022-10-16T05:45:36;15.60;99.90
7044;DHT22;57890;52.36301240;9.76001620;2022-10-16T05:48:04;15.60;99.90
7044;DHT22;57890;52.36301240;9.76001620;2022-10-16T05:50:31;15.60;99.90
7044;DHT22;57890;52.36301240;9.76001620;2022-10-16T05:52:58;15.60;99.90
7044;DHT22;57890;52.36301240;9.76001620;2022-10-16T05:55:24;15.60;99.90
7044;DHT22;57890;52.36301240;9.76001620;2022-10-16T05:57:55;15.60;99.90
7044;DHT22;57890;52.36301240;9.76001620;2022-10-16T06:00:22;15.60;99.90
7044;DHT22;57890;52.36301240;9.76001620;2022-10-16T06:02:49;15.60;99.90
7044;DHT22;57890;52.36301240;9.76001620;2022-10-16T06:05:15;15.60;99.90
7044;DHT22;57890;52.36301240;9.76001620;2022-10-16T06:07:42;15.60;99.90
7044;DHT22;57890;52.36301240;9.76001620;2022-10-16T06:10:09;15.70;99.90
7044;DHT22;57890;52.36301240;9.76001620;2022-10-16T06:12:36;15.60;99.90
7044;DHT22;57890;52.36301240;9.76001620;2022-10-16T06:15:05;15.70;99.90
7044;DHT22;57890;52.36301240;9.76001620;2022-10-16T06:17:32;15.70;99.90
7044;DHT22;57890;52.36301240;9.76001620;2022-10-16T06:19:59;15.70;99.90
7044;DHT22;57890;52.36301240;9.76001620;2022-10-16T06:22:26;15.70;99.90
7044;DHT22;57890;52.36301240;9.76001620;2022-10-16T06:24:53;15.70;99.90
7044;DHT22;57890;52.36301240;9.76001620;2022-10-16T06:27:20;15.70;99.90
7044;DHT22;57890;52.36301240;9.76001620;2022-10-16T06:29:47;15.70;99.90
7044;DHT22;57890;52.36301240;9.76001620;2022-10-16T06:32:16;15.70;99.90
7044;DHT22;57890;52.36301240;9.76001620;2022-10-16T06:34:42;15.70;99.90
7044;DHT22;57890;52.36301240;9.76001620;2022-10-16T06:37:10;15.70;99.90
7044;DHT22;57890;52.36301240;9.76001620;2022-10-16T06:39:36;15.70;99.90
7044;DHT22;57890;52.36301240;9.76001620;2022-10-16T06:42:03;15.70;99.90
7044;DHT22;57890;52.36301240;9.76001620;2022-10-16T06:44:35;15.70;99.90
7044;DHT22;57890;52.36301240;9.76001620;2022-10-16T06:47:02;15.70;99.90
7044;DHT22;57890;52.36301240;9.76001620;2022-10-16T06:49:30;15.70;99.90
7044;DHT22;57890;52.36301240;9.76001620;2022-10-16T06:51:57;15.80;99.90
7044;DHT22;57890;52.36301240;9.76001620;2022-10-16T06:54:24;15.80;99.90
7044;DHT22;57890;52.36301240;9.76001620;2022-10-16T06:56:51;15.80;99.90
7044;DHT22;57890;52.36301240;9.76001620;2022-10-16T06:59:20;15.80;99.90
7044;DHT22;57890;52.36301240;9.76001620;2022-10-16T07:01:47;15.80;99.90
7044;DHT22;57890;52.36301240;9.76001620;2022-10-16T07:04:14;15.80;99.90
7044;DHT22;57890;52.36301240;9.76001620;2022-10-16T07:06:42;15.80;99.90
7044;DHT22;57890;52.36301240;9.76001620;2022-10-16T07:09:10;15.90;99.90
7044;DHT22;57890;52.36301240;9.76001620;2022-10-16T07:11:39;15.90;99.90
7044;DHT22;57890;52.36301240;9.76001620;2022-10-16T07:14:15;15.90;99.90
7044;DHT22;57890;52.36301240;9.76001620;2022-10-16T07:16:43;16.00;99.90
7044;DHT22;57890;52.36301240;9.76001620;2022-10-16T07:19:10;16.00;99.90
7044;DHT22;57890;52.36301240;9.76001620;2022-10-16T07:21:38;15.90;99.90
7044;DHT22;57890;52.36301240;9.76001620;2022-10-16T07:24:11;16.00;99.90
7044;DHT22;57890;52.36301240;9.76001620;2022-10-16T07:26:39;16.00;99.90
7044;DHT22;57890;52.36301240;9.76001620;2022-10-16T07:29:07;16.00;99.90
7044;DHT22;57890;52.36301240;9.76001620;2022-10-16T07:31:38;16.00;99.90
7044;DHT22;57890;52.36301240;9.76001620;2022-10-16T07:34:05;16.10;99.90
7044;DHT22;57890;52.36301240;9.76001620;2022-10-16T07:36:32;16.10;99.90
7044;DHT22;57890;52.36301240;9.76001620;2022-10-16T07:38:59;16.20;99.90
7044;DHT22;57890;52.36301240;9.76001620;2022-10-16T07:41:28;16.20;99.90
7044;DHT22;57890;52.36301240;9.76001620;2022-10-16T07:43:56;16.20;99.90
7044;DHT22;57890;52.36301240;9.76001620;2022-10-16T07:46:26;16.30;99.90
7044;DHT22;57890;52.36301240;9.76001620;2022-10-16T07:48:53;16.30;99.90
7044;DHT22;57890;52.36301240;9.76001620;2022-10-16T07:51:21;16.30;99.90
7044;DHT22;57890;52.36301240;9.76001620;2022-10-16T07:53:49;16.40;99.90
7044;DHT22;57890;52.36301240;9.76001620;2022-10-16T07:56:17;16.40;99.90
7044;DHT22;57890;52.36301240;9.76001620;2022-10-16T07:58:46;16.40;99.90
7044;DHT22;57890;52.36301240;9.76001620;2022-10-16T08:01:16;16.40;99.90
7044;DHT22;57890;52.36301240;9.76001620;2022-10-16T08:03:44;16.50;99.90
7044;DHT22;57890;52.36301240;9.76001620;2022-10-16T08:06:11;16.50;99.90
7044;DHT22;57890;52.36301240;9.76001620;2022-10-16T08:08:39;16.60;99.90
7044;DHT22;57890;52.36301240;9.76001620;2022-10-16T08:11:06;16.60;99.90
7044;DHT22;57890;52.36301240;9.76001620;2022-10-16T08:13:33;16.70;99.90
7044;DHT22;57890;52.36301240;9.76001620;2022-10-16T08:16:02;16.70;99.90
7044;DHT22;57890;52.36301240;9.76001620;2022-10-16T08:18:33;16.80;99.90
7044;DHT22;57890;52.36301240;9.76001620;2022-10-16T08:21:01;16.80;99.90
7044;DHT22;57890;52.36301240;9.76001620;2022-10-16T08:23:28;16.80;99.90
7044;DHT22;57890;52.36301240;9.76001620;2022-10-16T08:26:01;16.80;99.90
7044;DHT22;57890;52.36301240;9.76001620;2022-10-16T08:28:28;16.90;99.90
7044;DHT22;57890;52.36301240;9.76001620;2022-10-16T08:30:55;16.90;99.90
7044;DHT22;57890;52.36301240;9.76001620;2022-10-16T08:33:23;16.90;99.90
7044;DHT22;57890;52.36301240;9.76001620;2022-10-16T08:35:51;16.90;99.90
7044;DHT22;57890;52.36301240;9.76001620;2022-10-16T08:38:19;16.90;99.90
7044;DHT22;57890;52.36301240;9.76001620;2022-10-16T08:40:47;17.00;99.90
7044;DHT22;57890;52.36301240;9.76001620;2022-10-16T08:43:33;16.90;99.90
7044;DHT22;57890;52.36301240;9.76001620;2022-10-16T08:46:21;16.90;99.90
7044;DHT22;57890;52.36301240;9.76001620;2022-10-16T08:48:56;17.00;99.90
7044;DHT22;57890;52.36301240;9.76001620;2022-10-16T08:51:27;17.00;99.90
7044;DHT22;57890;52.36301240;9.76001620;2022-10-16T08:53:57;17.00;99.90
7044;DHT22;57890;52.36301240;9.76001620;2022-10-16T08:56:25;17.00;99.90
7044;DHT22;57890;52.36301240;9.76001620;2022-10-16T08:58:53;17.00;99.90
7044;DHT22;57890;52.36301240;9.76001620;2022-10-16T09:01:22;17.00;99.90
7044;DHT22;57890;52.36301240;9.76001620;2022-10-16T09:04:05;17.00;99.90
7044;DHT22;57890;52.36301240;9.76001620;2022-10-16T09:06:52;17.00;99.90
7044;DHT22;57890;52.36301240;9.76001620;2022-10-16T09:09:44;17.10;99.90
7044;DHT22;57890;52.36301240;9.76001620;2022-10-16T09:12:16;17.10;99.90
7044;DHT22;57890;52.36301240;9.76001620;2022-10-16T09:14:52;17.20;99.90
7044;DHT22;57890;52.36301240;9.76001620;2022-10-16T09:17:32;17.20;99.90
7044;DHT22;57890;52.36301240;9.76001620;2022-10-16T09:20:14;17.30;99.90
7044;DHT22;57890;52.36301240;9.76001620;2022-10-16T09:22:42;17.40;99.90
7044;DHT22;57890;52.36301240;9.76001620;2022-10-16T09:25:12;17.40;99.90
7044;DHT22;57890;52.36301240;9.76001620;2022-10-16T09:27:40;17.40;99.90
7044;DHT22;57890;52.36301240;9.76001620;2022-10-16T09:30:13;17.50;99.90
7044;DHT22;57890;52.36301240;9.76001620;2022-10-16T09:32:41;17.50;99.90
7044;DHT22;57890;52.36301240;9.76001620;2022-10-16T09:35:15;17.50;99.90
7044;DHT22;57890;52.36301240;9.76001620;2022-10-16T09:37:44;17.50;99.90
7044;DHT22;57890;52.36301240;9.76001620;2022-10-16T09:40:23;17.60;99.90
7044;DHT22;57890;52.36301240;9.76001620;2022-10-16T09:42:52;17.60;99.90
7044;DHT22;57890;52.36301240;9.76001620;2022-10-16T09:45:23;17.60;99.90
7044;DHT22;57890;52.36301240;9.76001620;2022-10-16T09:47:50;17.60;99.90
7044;DHT22;57890;52.36301240;9.76001620;2022-10-16T09:50:24;17.60;99.90
7044;DHT22;57890;52.36301240;9.76001620;2022-10-16T09:53:03;17.60;99.90
7044;DHT22;57890;52.36301240;9.76001620;2022-10-16T09:55:31;17.60;99.90
7044;DHT22;57890;52.36301240;9.76001620;2022-10-16T09:57:58;17.60;99.90
7044;DHT22;57890;52.36301240;9.76001620;2022-10-16T10:00:25;17.60;99.90
7044;DHT22;57890;52.36301240;9.76001620;2022-10-16T10:02:53;17.60;99.90
7044;DHT22;57890;52.36301240;9.76001620;2022-10-16T10:05:25;17.60;99.90
7044;DHT22;57890;52.36301240;9.76001620;2022-10-16T10:07:55;17.70;99.90
7044;DHT22;57890;52.36301240;9.76001620;2022-10-16T10:10:25;17.70;99.90
7044;DHT22;57890;52.36301240;9.76001620;2022-10-16T10:12:52;17.70;99.90
7044;DHT22;57890;52.36301240;9.76001620;2022-10-16T10:15:20;17.70;99.90
7044;DHT22;57890;52.36301240;9.76001620;2022-10-16T10:17:50;17.70;99.90
7044;DHT22;57890;52.36301240;9.76001620;2022-10-16T10:20:25;17.70;99.90
7044;DHT22;57890;52.36301240;9.76001620;2022-10-16T10:22:53;17.80;99.90
7044;DHT22;57890;52.36301240;9.76001620;2022-10-16T10:25:35;17.80;99.90
7044;DHT22;57890;52.36301240;9.76001620;2022-10-16T10:28:17;17.80;99.90
7044;DHT22;57890;52.36301240;9.76001620;2022-10-16T10:30:51;17.80;99.90
7044;DHT22;57890;52.36301240;9.76001620;2022-10-16T10:33:31;17.90;99.90
7044;DHT22;57890;52.36301240;9.76001620;2022-10-16T10:36:12;17.90;99.90
7044;DHT22;57890;52.36301240;9.76001620;2022-10-16T10:38:47;18.00;99.90
7044;DHT22;57890;52.36301240;9.76001620;2022-10-16T10:44:19;18.00;99.80
7044;DHT22;57890;52.36301240;9.76001620;2022-10-16T10:46:50;18.00;99.70
7044;DHT22;57890;52.36301240;9.76001620;2022-10-16T10:49:36;18.00;99.60
7044;DHT22;57890;52.36301240;9.76001620;2022-10-16T10:52:20;18.10;99.40
7044;DHT22;57890;52.36301240;9.76001620;2022-10-16T10:54:53;18.10;99.40
7044;DHT22;57890;52.36301240;9.76001620;2022-10-16T10:57:29;18.10;99.40
7044;DHT22;57890;52.36301240;9.76001620;2022-10-16T11:00:20;18.10;99.20
7044;DHT22;57890;52.36301240;9.76001620;2022-10-16T11:02:55;18.20;99.00
7044;DHT22;57890;52.36301240;9.76001620;2022-10-16T11:05:41;18.20;99.10
7044;DHT22;57890;52.36301240;9.76001620;2022-10-16T11:08:14;18.30;99.10
7044;DHT22;57890;52.36301240;9.76001620;2022-10-16T11:10:47;18.30;99.10
7044;DHT22;57890;52.36301240;9.76001620;2022-10-16T11:13:23;18.40;99.10
7044;DHT22;57890;52.36301240;9.76001620;2022-10-16T11:15:57;18.40;99.10
7044;DHT22;57890;52.36301240;9.76001620;2022-10-16T11:18:29;18.40;98.90
7044;DHT22;57890;52.36301240;9.76001620;2022-10-16T11:21:00;18.50;98.80
7044;DHT22;57890;52.36301240;9.76001620;2022-10-16T11:23:33;18.50;98.70
7044;DHT22;57890;52.36301240;9.76001620;2022-10-16T11:26:11;18.60;98.60
7044;DHT22;57890;52.36301240;9.76001620;2022-10-16T11:28:43;18.60;98.50
7044;DHT22;57890;52.36301240;9.76001620;2022-10-16T11:31:15;18.70;98.50
7044;DHT22;57890;52.36301240;9.76001620;2022-10-16T11:33:47;18.80;98.30
7044;DHT22;57890;52.36301240;9.76001620;2022-10-16T11:36:19;18.80;98.30
7044;DHT22;57890;52.36301240;9.76001620;2022-10-16T11:38:54;18.90;98.30
7044;DHT22;57890;52.36301240;9.76001620;2022-10-16T11:41:28;19.00;98.20
7044;DHT22;57890;52.36301240;9.76001620;2022-10-16T11:44:18;19.10;98.20
7044;DHT22;57890;52.36301240;9.76001620;2022-10-16T11:46:52;19.20;98.00
7044;DHT22;57890;52.36301240;9.76001620;2022-10-16T11:49:26;19.20;98.10
7044;DHT22;57890;52.36301240;9.76001620;2022-10-16T11:51:59;19.20;98.00
7044;DHT22;57890;52.36301240;9.76001620;2022-10-16T11:54:37;19.30;97.90
7044;DHT22;57890;52.36301240;9.76001620;2022-10-16T11:57:11;19.30;97.80
7044;DHT22;57890;52.36301240;9.76001620;2022-10-16T11:59:43;19.30;97.80
7044;DHT22;57890;52.36301240;9.76001620;2022-10-16T12:02:30;19.40;97.70
7044;DHT22;57890;52.36301240;9.76001620;2022-10-16T12:05:11;19.40;97.50
7044;DHT22;57890;52.36301240;9.76001620;2022-10-16T12:07:41;19.50;97.60
7044;DHT22;57890;52.36301240;9.76001620;2022-10-16T12:10:21;19.50;97.50
7044;DHT22;57890;52.36301240;9.76001620;2022-10-16T12:12:50;19.60;97.40
7044;DHT22;57890;52.36301240;9.76001620;2022-10-16T12:15:23;19.60;97.50
7044;DHT22;57890;52.36301240;9.76001620;2022-10-16T12:17:51;19.70;97.40
7044;DHT22;57890;52.36301240;9.76001620;2022-10-16T12:20:22;19.80;97.50
7044;DHT22;57890;52.36301240;9.76001620;2022-10-16T12:22:54;19.80;97.30
7044;DHT22;57890;52.36301240;9.76001620;2022-10-16T12:25:25;19.90;97.20
7044;DHT22;57890;52.36301240;9.76001620;2022-10-16T12:27:55;20.00;97.10
7044;DHT22;57890;52.36301240;9.76001620;2022-10-16T12:30:24;20.00;97.10
7044;DHT22;57890;52.36301240;9.76001620;2022-10-16T12:32:56;20.10;96.90
7044;DHT22;57890;52.36301240;9.76001620;2022-10-16T12:35:26;20.10;96.80
7044;DHT22;57890;52.36301240;9.76001620;2022-10-16T12:37:54;20.20;96.70
7044;DHT22;57890;52.36301240;9.76001620;2022-10-16T12:40:33;20.30;96.70
7044;DHT22;57890;52.36301240;9.76001620;2022-10-16T12:46:02;20.50;96.40
7044;DHT22;57890;52.36301240;9.76001620;2022-10-16T12:48:29;20.60;96.50
7044;DHT22;57890;52.36301240;9.76001620;2022-10-16T12:50:57;20.60;96.60
7044;DHT22;57890;52.36301240;9.76001620;2022-10-16T12:53:25;20.60;96.40
7044;DHT22;57890;52.36301240;9.76001620;2022-10-16T12:56:04;20.70;96.40
7044;DHT22;57890;52.36301240;9.76001620;2022-10-16T12:58:47;20.70;96.10
7044;DHT22;57890;52.36301240;9.76001620;2022-10-16T13:01:25;20.80;96.20
7044;DHT22;57890;52.36301240;9.76001620;2022-10-16T13:04:23;20.90;96.20
7044;DHT22;57890;52.36301240;9.76001620;2022-10-16T13:06:58;21.00;96.00
7044;DHT22;57890;52.36301240;9.76001620;2022-10-16T13:09:36;21.10;96.20
7044;DHT22;57890;52.36301240;9.76001620;2022-10-16T13:12:21;21.20;96.10
7044;DHT22;57890;52.36301240;9.76001620;2022-10-16T13:15:19;21.40;96.30
7044;DHT22;57890;52.36301240;9.76001620;2022-10-16T13:17:55;21.50;96.30
7044;DHT22;57890;52.36301240;9.76001620;2022-10-16T13:20:31;21.80;96.90
7044;DHT22;57890;52.36301240;9.76001620;2022-10-16T13:23:10;22.10;97.00
7044;DHT22;57890;52.36301240;9.76001620;2022-10-16T13:25:49;22.80;96.90
7044;DHT22;57890;52.36301240;9.76001620;2022-10-16T13:28:22;23.60;96.60
7044;DHT22;57890;52.36301240;9.76001620;2022-10-16T13:30:56;25.00;96.40
7044;DHT22;57890;52.36301240;9.76001620;2022-10-16T13:33:30;26.70;95.40
7044;DHT22;57890;52.36301240;9.76001620;2022-10-16T13:35:59;27.40;93.40
7044;DHT22;57890;52.36301240;9.76001620;2022-10-16T13:38:27;28.70;92.50
7044;DHT22;57890;52.36301240;9.76001620;2022-10-16T13:40:56;29.70;91.10
7044;DHT22;57890;52.36301240;9.76001620;2022-10-16T13:43:31;30.80;89.40
7044;DHT22;57890;52.36301240;9.76001620;2022-10-16T13:46:01;31.50;85.50
7044;DHT22;57890;52.36301240;9.76001620;2022-10-16T13:48:29;31.60;82.70
7044;DHT22;57890;52.36301240;9.76001620;2022-10-16T13:51:04;31.40;80.60
7044;DHT22;57890;52.36301240;9.76001620;2022-10-16T13:53:33;30.60;78.60
7044;DHT22;57890;52.36301240;9.76001620;2022-10-16T13:56:02;29.50;78.50
7044;DHT22;57890;52.36301240;9.76001620;2022-10-16T13:58:31;28.50;78.80